createdAt,value
2022-11-25T00:00:14.158Z,87.92
2022-11-25T00:01:22.368Z,88.20
2022-11-25T00:02:24.628Z,88.15
2022-11-25T00:03:27.188Z,88.27
2022-11-25T00:04:34.229Z,88.31
2022-11-25T00:05:36.863Z,88.23
2022-11-25T00:06:39.071Z,88.17
2022-11-25T00:07:41.364Z,88.20
2022-11-25T00:08:45.884Z,87.98
2022-11-25T00:09:48.413Z,87.97
2022-11-25T00:10:50.600Z,87.95
2022-11-25T00:11:52.832Z,87.94
2022-11-25T00:12:55.155Z,87.90
2022-11-25T00:13:58.188Z,87.89
2022-11-25T00:15:00.619Z,87.90
2022-11-25T00:16:08.359Z,87.86
2022-11-25T00:17:10.641Z,87.80
2022-11-25T00:18:18.444Z,87.97
2022-11-25T00:19:20.616Z,87.89
2022-11-25T00:20:23.023Z,87.68
2022-11-25T00:21:27.972Z,87.64
2022-11-25T00:22:30.143Z,87.55
2022-11-25T00:23:33.462Z,87.49
2022-11-25T00:24:38.765Z,87.60
2022-11-25T00:25:41.166Z,87.36
2022-11-25T00:26:43.743Z,87.28
2022-11-25T00:27:46.051Z,87.34
2022-11-25T00:28:48.924Z,87.04
2022-11-25T00:29:51.126Z,86.87
2022-11-25T00:30:53.607Z,86.86
2022-11-25T00:31:55.956Z,86.79
2022-11-25T00:32:58.194Z,86.74
2022-11-25T00:34:02.468Z,87.06
2022-11-25T00:35:05.055Z,87.43
2022-11-25T00:36:20.237Z,87.15
2022-11-25T00:37:22.475Z,87.23
2022-11-25T00:38:24.685Z,87.35
2022-11-25T00:39:28.801Z,87.62
2022-11-25T00:40:31.159Z,87.70
2022-11-25T00:41:52.067Z,87.73
2022-11-25T00:43:14.386Z,87.46
2022-11-25T00:44:38.926Z,87.56
2022-11-25T00:45:42.782Z,87.73
2022-11-25T00:46:45.460Z,87.47
2022-11-25T00:47:47.731Z,87.95
2022-11-25T00:48:49.955Z,88.05
2022-11-25T00:49:54.729Z,88.06
2022-11-25T00:50:57.326Z,87.98
2022-11-25T00:51:59.974Z,87.93
2022-11-25T00:53:02.143Z,87.72
2022-11-25T00:54:04.876Z,87.41
2022-11-25T00:55:07.666Z,87.32
2022-11-25T00:56:13.231Z,87.06
2022-11-25T00:57:19.843Z,87.26
2022-11-25T00:58:22.092Z,86.84
2022-11-25T00:59:24.567Z,86.75
2022-11-25T01:00:26.764Z,86.66
2022-11-25T01:01:29.378Z,86.78
2022-11-25T01:02:31.693Z,87.02
2022-11-25T01:03:37.030Z,87.06
2022-11-25T01:04:39.253Z,86.99
2022-11-25T01:05:41.647Z,86.98
2022-11-25T01:06:44.188Z,87.17
2022-11-25T01:07:46.574Z,87.02
2022-11-25T01:08:49.535Z,87.08
2022-11-25T01:09:53.399Z,87.09
2022-11-25T01:11:13.341Z,87.28
2022-11-25T01:12:15.888Z,87.53
2022-11-25T01:13:18.194Z,87.72
2022-11-25T01:14:21.688Z,87.79
2022-11-25T01:15:24.085Z,87.91
2022-11-25T01:16:26.976Z,88.39
2022-11-25T01:17:29.186Z,88.33
2022-11-25T01:18:32.518Z,88.37
2022-11-25T01:19:38.404Z,88.04
2022-11-25T01:20:40.775Z,88.26
2022-11-25T01:21:43.486Z,88.30
2022-11-25T01:22:47.020Z,88.28
2022-11-25T01:23:49.748Z,88.69
2022-11-25T01:24:51.971Z,88.77
2022-11-25T01:25:55.751Z,88.75
2022-11-25T01:27:00.832Z,88.97
2022-11-25T01:28:03.052Z,89.21
2022-11-25T01:29:07.750Z,89.28
2022-11-25T01:30:10.209Z,89.24
2022-11-25T01:31:16.153Z,89.27
2022-11-25T01:32:18.756Z,89.21
2022-11-25T01:33:21.187Z,89.25
2022-11-25T01:34:26.042Z,89.36
2022-11-25T01:35:29.061Z,89.29
2022-11-25T01:36:31.288Z,89.36
2022-11-25T01:37:33.673Z,89.29
2022-11-25T01:38:36.207Z,89.18
2022-11-25T01:39:40.313Z,89.45
2022-11-25T01:40:42.477Z,89.69
2022-11-25T01:41:45.683Z,89.76
2022-11-25T01:42:49.386Z,89.85
2022-11-25T01:44:05.611Z,89.77
2022-11-25T01:45:28.878Z,89.87
2022-11-25T01:46:49.642Z,89.88
2022-11-25T01:47:58.015Z,89.78
2022-11-25T01:49:03.397Z,89.86
2022-11-25T01:50:09.751Z,89.86
2022-11-25T01:51:29.777Z,89.33
2022-11-25T01:52:39.675Z,89.19
2022-11-25T01:53:42.075Z,89.21
2022-11-25T01:55:08.088Z,89.25
2022-11-25T01:56:10.527Z,89.37
2022-11-25T01:57:17.709Z,89.40
2022-11-25T01:58:26.900Z,89.45
2022-11-25T01:59:31.155Z,89.43
2022-11-25T02:00:33.971Z,89.49
2022-11-25T02:01:36.631Z,89.62
2022-11-25T02:02:38.892Z,89.58
2022-11-25T02:03:44.634Z,89.62
2022-11-25T02:04:49.230Z,89.49
2022-11-25T02:05:59.048Z,89.59
2022-11-25T02:07:08.041Z,89.57
2022-11-25T02:08:10.915Z,89.61
2022-11-25T02:09:15.322Z,89.67
2022-11-25T02:10:30.727Z,89.82
2022-11-25T02:11:34.942Z,89.76
2022-11-25T02:12:43.231Z,89.69
2022-11-25T02:13:50.057Z,89.84
2022-11-25T02:14:54.143Z,89.71
2022-11-25T02:15:56.318Z,89.94
2022-11-25T02:17:02.453Z,90.07
2022-11-25T02:18:05.439Z,90.29
2022-11-25T02:19:23.647Z,90.06
2022-11-25T02:20:26.151Z,89.95
2022-11-25T02:21:45.927Z,89.68
2022-11-25T02:22:59.148Z,89.86
2022-11-25T02:24:13.794Z,89.88
2022-11-25T02:25:24.510Z,89.85
2022-11-25T02:26:27.035Z,90.06
2022-11-25T02:27:29.208Z,90.21
2022-11-25T02:28:32.918Z,89.77
2022-11-25T02:29:39.528Z,90.01
2022-11-25T02:30:42.616Z,90.13
2022-11-25T02:31:45.158Z,90.44
2022-11-25T02:32:48.562Z,90.58
2022-11-25T02:33:51.038Z,90.87
2022-11-25T02:34:53.203Z,90.69
2022-11-25T02:35:58.397Z,90.60
2022-11-25T02:37:00.735Z,90.97
2022-11-25T02:38:10.520Z,91.15
2022-11-25T02:39:13.918Z,91.54
2022-11-25T02:40:17.459Z,91.52
2022-11-25T02:41:21.147Z,91.68
2022-11-25T02:42:29.957Z,91.78
2022-11-25T02:43:33.353Z,91.69
2022-11-25T02:44:35.921Z,91.75
2022-11-25T02:45:56.873Z,91.81
2022-11-25T02:46:59.153Z,91.81
2022-11-25T02:48:01.935Z,91.61
2022-11-25T02:49:09.227Z,91.69
2022-11-25T02:50:14.048Z,91.62
2022-11-25T02:51:19.142Z,91.81
2022-11-25T02:52:22.145Z,91.94
2022-11-25T02:53:24.870Z,91.83
2022-11-25T02:54:27.272Z,91.56
2022-11-25T02:55:29.476Z,91.53
2022-11-25T02:56:34.634Z,91.54
2022-11-25T02:57:36.830Z,91.67
2022-11-25T02:58:39.595Z,91.63
2022-11-25T02:59:44.013Z,91.52
2022-11-25T03:00:46.786Z,91.50
2022-11-25T03:01:50.360Z,91.54
2022-11-25T03:02:54.546Z,91.61
2022-11-25T03:03:57.023Z,91.35
2022-11-25T03:05:04.949Z,91.34
2022-11-25T03:06:07.520Z,90.98
2022-11-25T03:07:09.964Z,90.98
2022-11-25T03:08:12.479Z,91.00
2022-11-25T03:09:15.100Z,91.10
2022-11-25T03:10:17.567Z,90.92
2022-11-25T03:11:19.782Z,90.79
2022-11-25T03:12:22.023Z,90.63
2022-11-25T03:13:28.757Z,90.60
2022-11-25T03:14:30.945Z,90.64
2022-11-25T03:15:33.838Z,90.53
2022-11-25T03:16:36.597Z,90.47
2022-11-25T03:17:40.357Z,90.59
2022-11-25T03:18:44.817Z,90.26
2022-11-25T03:19:46.998Z,90.14
2022-11-25T03:20:54.152Z,89.97
2022-11-25T03:21:58.686Z,90.18
2022-11-25T03:23:01.793Z,90.03
2022-11-25T03:24:04.277Z,89.88
2022-11-25T03:25:06.892Z,89.65
2022-11-25T03:26:09.091Z,89.63
2022-11-25T03:27:11.344Z,89.58
2022-11-25T03:28:14.193Z,89.72
2022-11-25T03:29:16.557Z,89.77
2022-11-25T03:30:21.854Z,89.98
2022-11-25T03:31:26.523Z,89.61
2022-11-25T03:32:31.104Z,89.69
2022-11-25T03:33:33.687Z,89.72
2022-11-25T03:34:36.246Z,89.83
2022-11-25T03:35:39.018Z,89.82
2022-11-25T03:36:41.305Z,89.80
2022-11-25T03:37:44.603Z,89.79
2022-11-25T03:38:47.582Z,89.79
2022-11-25T03:39:49.807Z,89.72
2022-11-25T03:40:52.557Z,89.73
2022-11-25T03:41:54.776Z,89.33
2022-11-25T03:42:57.102Z,89.63
2022-11-25T03:43:59.540Z,89.54
2022-11-25T03:45:02.196Z,89.74
2022-11-25T03:46:05.230Z,89.38
2022-11-25T03:47:07.879Z,89.10
2022-11-25T03:48:10.550Z,88.96
2022-11-25T03:49:12.902Z,88.57
2022-11-25T03:50:16.340Z,88.53
2022-11-25T03:51:20.611Z,88.29
2022-11-25T03:52:24.348Z,88.22
2022-11-25T03:53:26.600Z,87.98
2022-11-25T03:54:28.986Z,88.12
2022-11-25T03:55:49.575Z,88.33
2022-11-25T03:56:54.765Z,88.32
2022-11-25T03:57:57.265Z,88.26
2022-11-25T03:59:00.956Z,88.08
2022-11-25T04:00:05.144Z,88.30
2022-11-25T04:01:20.758Z,88.47
2022-11-25T04:02:23.146Z,88.68
2022-11-25T04:03:25.799Z,88.85
2022-11-25T04:04:28.564Z,88.68
2022-11-25T04:05:30.934Z,88.58
2022-11-25T04:06:40.036Z,88.76
2022-11-25T04:07:42.291Z,88.56
2022-11-25T04:08:44.634Z,88.74
2022-11-25T04:09:47.202Z,88.64
2022-11-25T04:10:54.121Z,88.77
2022-11-25T04:12:18.508Z,88.57
2022-11-25T04:13:27.778Z,88.45
2022-11-25T04:14:30.801Z,88.51
2022-11-25T04:15:33.343Z,88.42
2022-11-25T04:16:36.371Z,88.40
2022-11-25T04:17:38.698Z,88.53
2022-11-25T04:18:41.456Z,88.77
2022-11-25T04:19:43.695Z,88.84
2022-11-25T04:20:47.181Z,88.82
2022-11-25T04:21:52.509Z,88.84
2022-11-25T04:22:55.295Z,88.64
2022-11-25T04:23:58.159Z,88.77
2022-11-25T04:25:00.343Z,88.78
2022-11-25T04:26:02.591Z,88.76
2022-11-25T04:27:10.248Z,88.54
2022-11-25T04:28:12.983Z,88.49
2022-11-25T04:29:16.541Z,88.38
2022-11-25T04:30:19.388Z,88.35
2022-11-25T04:31:21.785Z,88.36
2022-11-25T04:32:24.512Z,88.23
2022-11-25T04:33:26.664Z,88.06
2022-11-25T04:34:28.913Z,87.96
2022-11-25T04:35:31.287Z,87.90
2022-11-25T04:36:33.523Z,87.99
2022-11-25T04:37:36.727Z,87.83
2022-11-25T04:38:39.546Z,87.97
2022-11-25T04:39:43.006Z,87.81
2022-11-25T04:40:52.682Z,87.83
2022-11-25T04:42:16.551Z,87.90
2022-11-25T04:43:18.959Z,87.96
2022-11-25T04:44:25.567Z,87.91
2022-11-25T04:45:33.409Z,87.88
2022-11-25T04:46:48.041Z,87.88
2022-11-25T04:47:50.282Z,88.00
2022-11-25T04:48:52.517Z,87.99
2022-11-25T04:49:56.411Z,88.19
2022-11-25T04:50:58.637Z,88.00
2022-11-25T04:52:01.542Z,88.00
2022-11-25T04:53:03.792Z,87.80
2022-11-25T04:54:06.292Z,87.41
2022-11-25T04:55:10.586Z,87.31
2022-11-25T04:56:18.762Z,87.37
2022-11-25T04:57:22.161Z,87.45
2022-11-25T04:58:43.152Z,87.27
2022-11-25T04:59:46.188Z,86.98
2022-11-25T05:00:49.869Z,86.96
2022-11-25T05:01:53.474Z,87.19
2022-11-25T05:03:16.123Z,87.54
2022-11-25T05:04:18.487Z,87.43
2022-11-25T05:05:21.255Z,87.39
2022-11-25T05:06:23.510Z,87.56
2022-11-25T05:07:28.115Z,87.97
2022-11-25T05:08:32.309Z,88.07
2022-11-25T05:09:34.747Z,88.10
2022-11-25T05:10:52.242Z,88.06
2022-11-25T05:11:54.592Z,88.02
2022-11-25T05:12:57.418Z,88.10
2022-11-25T05:13:59.606Z,88.06
2022-11-25T05:15:02.163Z,87.83
2022-11-25T05:16:04.568Z,87.68
2022-11-25T05:17:07.803Z,87.59
2022-11-25T05:18:10.634Z,87.39
2022-11-25T05:19:18.616Z,87.32
2022-11-25T05:20:21.277Z,87.08
2022-11-25T05:21:23.626Z,86.49
2022-11-25T05:22:28.427Z,86.60
2022-11-25T05:23:32.139Z,86.48
2022-11-25T05:24:35.136Z,86.46
2022-11-25T05:25:38.271Z,86.62
2022-11-25T05:27:00.897Z,86.77
2022-11-25T05:28:03.760Z,86.77
2022-11-25T05:29:06.257Z,86.68
2022-11-25T05:30:10.218Z,86.62
2022-11-25T05:31:13.301Z,86.60
2022-11-25T05:32:16.310Z,86.62
2022-11-25T05:33:18.860Z,86.83
2022-11-25T05:34:21.521Z,86.92
2022-11-25T05:35:24.156Z,87.21
2022-11-25T05:36:26.341Z,87.32
2022-11-25T05:37:28.494Z,87.42
2022-11-25T05:38:37.618Z,87.42
2022-11-25T05:39:40.039Z,87.33
2022-11-25T05:41:01.682Z,87.40
2022-11-25T05:42:04.545Z,87.54
2022-11-25T05:43:06.759Z,87.74
2022-11-25T05:44:11.578Z,87.86
2022-11-25T05:45:14.120Z,87.97
2022-11-25T05:46:16.340Z,87.99
2022-11-25T05:47:24.709Z,87.89
2022-11-25T05:48:26.841Z,88.06
2022-11-25T05:49:29.319Z,88.05
2022-11-25T05:50:32.930Z,88.28
2022-11-25T05:52:07.188Z,88.59
2022-11-25T05:53:17.759Z,88.59
2022-11-25T05:54:21.915Z,88.53
2022-11-25T05:55:24.163Z,88.59
2022-11-25T05:56:26.690Z,88.58
2022-11-25T05:57:37.799Z,88.42
2022-11-25T05:58:43.845Z,88.46
2022-11-25T05:59:46.266Z,88.24
2022-11-25T06:00:55.997Z,88.23
2022-11-25T06:01:58.345Z,88.25
2022-11-25T06:03:02.066Z,88.28
2022-11-25T06:04:05.199Z,88.54
2022-11-25T06:05:08.114Z,88.42
2022-11-25T06:06:11.305Z,88.60
2022-11-25T06:07:14.192Z,88.46
2022-11-25T06:08:17.428Z,88.44
2022-11-25T06:09:19.589Z,88.78
2022-11-25T06:10:22.145Z,88.66
2022-11-25T06:11:25.728Z,88.73
2022-11-25T06:12:28.113Z,88.59
2022-11-25T06:13:30.291Z,88.94
2022-11-25T06:14:32.517Z,89.15
2022-11-25T06:15:35.815Z,89.14
2022-11-25T06:16:41.024Z,89.31
2022-11-25T06:17:57.621Z,89.48
2022-11-25T06:19:06.726Z,89.46
2022-11-25T06:20:09.495Z,89.48
2022-11-25T06:21:12.396Z,89.37
2022-11-25T06:22:14.633Z,89.38
2022-11-25T06:23:17.095Z,89.38
2022-11-25T06:24:20.825Z,89.37
2022-11-25T06:25:28.066Z,89.19
2022-11-25T06:26:31.260Z,89.09
2022-11-25T06:27:50.397Z,89.02
2022-11-25T06:28:56.826Z,88.99
2022-11-25T06:30:00.187Z,89.13
2022-11-25T06:31:11.774Z,89.23
2022-11-25T06:32:21.380Z,89.60
2022-11-25T06:33:30.997Z,89.74
2022-11-25T06:34:41.877Z,89.66
2022-11-25T06:35:52.540Z,89.94
2022-11-25T06:36:54.733Z,90.33
2022-11-25T06:37:58.809Z,90.46
2022-11-25T06:39:00.956Z,90.46
2022-11-25T06:40:04.183Z,90.60
2022-11-25T06:41:06.689Z,90.78
2022-11-25T06:42:08.854Z,90.46
2022-11-25T06:43:11.205Z,90.50
2022-11-25T06:44:14.442Z,90.39
2022-11-25T06:45:16.745Z,90.36
2022-11-25T06:46:24.825Z,90.41
2022-11-25T06:47:27.466Z,90.50
2022-11-25T06:48:29.909Z,89.87
2022-11-25T06:49:32.161Z,89.92
2022-11-25T06:50:34.300Z,89.74
2022-11-25T06:51:36.872Z,89.90
2022-11-25T06:52:39.123Z,89.89
2022-11-25T06:53:42.048Z,89.83
2022-11-25T06:54:45.489Z,89.59
2022-11-25T06:55:47.846Z,89.56
2022-11-25T06:56:53.787Z,89.52
2022-11-25T06:58:08.425Z,89.57
2022-11-25T06:59:18.383Z,89.63
2022-11-25T07:00:21.115Z,89.41
2022-11-25T07:01:29.155Z,89.21
2022-11-25T07:02:36.175Z,89.03
2022-11-25T07:03:44.439Z,88.97
2022-11-25T07:04:46.672Z,89.13
2022-11-25T07:05:49.061Z,89.05
2022-11-25T07:06:51.403Z,88.93
2022-11-25T07:07:53.597Z,88.95
2022-11-25T07:08:56.061Z,89.10
2022-11-25T07:09:58.202Z,89.17
2022-11-25T07:11:04.507Z,89.24
2022-11-25T07:12:07.271Z,89.58
2022-11-25T07:13:09.511Z,89.46
2022-11-25T07:14:13.730Z,89.28
2022-11-25T07:15:15.896Z,89.19
2022-11-25T07:16:18.711Z,89.19
2022-11-25T07:17:20.951Z,89.14
2022-11-25T07:18:23.363Z,89.00
2022-11-25T07:19:25.788Z,88.90
2022-11-25T07:20:28.698Z,88.94
2022-11-25T07:21:33.186Z,89.14
2022-11-25T07:22:35.562Z,89.10
2022-11-25T07:23:38.825Z,89.17
2022-11-25T07:24:40.981Z,89.04
2022-11-25T07:25:43.209Z,89.18
2022-11-25T07:26:46.184Z,89.49
2022-11-25T07:27:48.588Z,89.30
2022-11-25T07:28:52.401Z,89.13
2022-11-25T07:30:29.114Z,88.99
2022-11-25T07:31:27.635Z,88.98
2022-11-25T07:32:33.543Z,89.59
2022-11-25T07:33:36.317Z,89.59
2022-11-25T07:34:38.715Z,89.59
2022-11-25T07:35:41.160Z,89.75
2022-11-25T07:36:44.137Z,89.57
2022-11-25T07:37:46.792Z,89.48
2022-11-25T07:38:49.306Z,89.29
2022-11-25T07:39:51.542Z,88.90
2022-11-25T07:40:53.911Z,88.42
2022-11-25T07:41:56.085Z,88.14
2022-11-25T07:42:58.455Z,88.20
2022-11-25T07:44:04.454Z,88.06
2022-11-25T07:45:17.444Z,87.95
2022-11-25T07:46:27.415Z,87.74
2022-11-25T07:47:29.848Z,87.41
2022-11-25T07:48:32.036Z,87.27
2022-11-25T07:49:34.465Z,87.32
2022-11-25T07:50:36.861Z,87.14
2022-11-25T07:51:54.512Z,87.08
2022-11-25T07:52:56.849Z,86.89
2022-11-25T07:54:01.084Z,86.88
2022-11-25T07:55:03.508Z,86.64
2022-11-25T07:56:05.918Z,86.74
2022-11-25T07:57:08.281Z,86.60
2022-11-25T07:58:10.643Z,86.30
2022-11-25T07:59:15.723Z,86.20
2022-11-25T08:00:18.536Z,86.04
2022-11-25T08:01:20.977Z,85.97
2022-11-25T08:02:23.223Z,85.93
2022-11-25T08:03:25.599Z,85.78
2022-11-25T08:04:27.779Z,85.52
2022-11-25T08:05:30.134Z,84.93
2022-11-25T08:06:32.284Z,84.94
2022-11-25T08:07:36.668Z,84.99
2022-11-25T08:08:41.422Z,84.91
2022-11-25T08:09:43.591Z,84.84
2022-11-25T08:10:45.783Z,84.64
2022-11-25T08:11:49.092Z,84.69
2022-11-25T08:12:51.241Z,84.40
2022-11-25T08:13:53.891Z,84.47
2022-11-25T08:14:56.422Z,84.12
2022-11-25T08:15:59.659Z,84.01
2022-11-25T08:17:03.267Z,83.68
2022-11-25T08:18:05.497Z,83.73
2022-11-25T08:19:14.550Z,83.46
2022-11-25T08:20:16.729Z,83.33
2022-11-25T08:21:19.436Z,82.86
2022-11-25T08:22:21.598Z,82.98
2022-11-25T08:23:23.752Z,82.80
2022-11-25T08:24:26.119Z,82.69
2022-11-25T08:25:29.783Z,82.63
2022-11-25T08:26:38.355Z,82.28
2022-11-25T08:27:41.291Z,82.00
2022-11-25T08:28:44.388Z,81.79
2022-11-25T08:29:46.551Z,81.65
2022-11-25T08:30:48.957Z,81.29
2022-11-25T08:31:51.186Z,81.24
2022-11-25T08:32:53.523Z,81.14
2022-11-25T08:33:57.092Z,81.06
2022-11-25T08:34:59.272Z,80.63
2022-11-25T08:36:01.532Z,80.63
2022-11-25T08:37:03.767Z,80.50
2022-11-25T08:38:07.785Z,80.54
2022-11-25T08:39:36.257Z,80.53
2022-11-25T08:40:34.041Z,80.71
2022-11-25T08:41:37.882Z,80.62
2022-11-25T08:42:40.107Z,80.48
2022-11-25T08:43:42.914Z,80.42
2022-11-25T08:44:45.314Z,79.95
2022-11-25T08:45:48.970Z,79.40
2022-11-25T08:46:51.230Z,79.51
2022-11-25T08:47:53.611Z,79.15
2022-11-25T08:48:56.842Z,79.06
2022-11-25T08:49:59.519Z,79.01
2022-11-25T08:51:01.714Z,78.96
2022-11-25T08:52:04.069Z,79.20
2022-11-25T08:53:06.272Z,79.00
2022-11-25T08:54:09.036Z,78.68
2022-11-25T08:55:11.276Z,78.83
2022-11-25T08:56:14.175Z,78.87
2022-11-25T08:57:16.397Z,78.56
2022-11-25T08:58:18.820Z,78.02
2022-11-25T08:59:23.003Z,77.90
2022-11-25T09:00:25.160Z,77.79
2022-11-25T09:01:27.684Z,77.82
2022-11-25T09:02:30.034Z,77.58
2022-11-25T09:03:38.222Z,77.46
2022-11-25T09:04:40.562Z,77.27
2022-11-25T09:05:43.884Z,76.40
2022-11-25T09:06:46.060Z,76.30
2022-11-25T09:07:48.293Z,76.03
2022-11-25T09:08:51.341Z,76.05
2022-11-25T09:09:53.580Z,75.58
2022-11-25T09:10:56.039Z,75.20
2022-11-25T09:11:58.244Z,75.17
2022-11-25T09:13:00.941Z,75.36
2022-11-25T09:14:03.398Z,74.98
2022-11-25T09:15:06.110Z,74.42
2022-11-25T09:16:09.537Z,74.27
2022-11-25T09:17:12.680Z,73.87
2022-11-25T09:18:15.580Z,73.43
2022-11-25T09:19:17.695Z,73.23
2022-11-25T09:20:20.175Z,72.95
2022-11-25T09:21:24.817Z,72.98
2022-11-25T09:22:27.676Z,72.64
2022-11-25T09:23:29.913Z,72.06
2022-11-25T09:24:32.288Z,71.72
2022-11-25T09:25:35.628Z,71.82
2022-11-25T09:26:40.974Z,72.17
2022-11-25T09:27:43.327Z,71.76
2022-11-25T09:28:45.598Z,71.66
2022-11-25T09:29:47.932Z,71.34
2022-11-25T09:30:50.412Z,71.30
2022-11-25T09:31:55.029Z,71.58
2022-11-25T09:32:58.268Z,71.67
2022-11-25T09:34:00.558Z,71.73
2022-11-25T09:35:02.935Z,71.72
2022-11-25T09:36:06.178Z,71.36
2022-11-25T09:37:08.641Z,71.51
2022-11-25T09:38:10.925Z,71.32
2022-11-25T09:39:13.094Z,71.33
2022-11-25T09:40:19.848Z,70.92
2022-11-25T09:42:02.155Z,70.85
2022-11-25T09:43:42.825Z,70.76
2022-11-25T09:45:52.670Z,69.97
2022-11-25T09:47:26.417Z,68.50
2022-11-25T09:48:43.576Z,69.05
2022-11-25T09:49:53.311Z,69.10
2022-11-25T09:51:11.631Z,69.09
2022-11-25T09:52:38.785Z,69.44
2022-11-25T09:53:54.879Z,69.22
2022-11-25T09:55:13.002Z,68.34
2022-11-25T09:56:39.685Z,67.72
2022-11-25T09:58:03.920Z,66.82
2022-11-25T09:59:11.657Z,66.72
2022-11-25T10:00:19.154Z,66.49
2022-11-25T10:01:25.139Z,66.83
2022-11-25T10:02:49.374Z,67.44
2022-11-25T10:04:05.333Z,67.34
2022-11-25T10:05:16.534Z,67.47
2022-11-25T10:06:26.209Z,67.73
2022-11-25T10:07:39.463Z,67.78
2022-11-25T10:08:49.759Z,68.50
2022-11-25T10:09:53.060Z,68.10
2022-11-25T10:11:17.673Z,67.75
2022-11-25T10:12:28.039Z,67.59
2022-11-25T10:13:52.588Z,67.84
2022-11-25T10:15:01.862Z,68.00
2022-11-25T10:16:15.281Z,68.56
2022-11-25T10:17:17.465Z,67.79
2022-11-25T10:18:38.027Z,67.58
2022-11-25T10:20:01.808Z,68.04
2022-11-25T10:21:04.717Z,68.44
2022-11-25T10:22:21.954Z,68.79
2022-11-25T10:23:50.317Z,68.78
2022-11-25T10:24:57.433Z,68.91
2022-11-25T10:26:09.623Z,69.10
2022-11-25T10:27:21.617Z,68.88
2022-11-25T10:28:29.605Z,69.15
2022-11-25T10:29:36.043Z,69.36
2022-11-25T10:30:51.014Z,69.18
2022-11-25T10:32:01.571Z,69.23
2022-11-25T10:33:20.918Z,68.33
2022-11-25T10:34:37.097Z,68.66
2022-11-25T10:35:43.506Z,68.66
2022-11-25T10:36:47.240Z,69.12
2022-11-25T10:37:55.379Z,69.48
2022-11-25T10:39:05.176Z,69.42
2022-11-25T10:40:14.917Z,69.32
2022-11-25T10:41:22.401Z,69.83
2022-11-25T10:42:27.641Z,69.80
2022-11-25T10:43:32.094Z,69.51
2022-11-25T10:44:40.665Z,69.65
2022-11-25T10:45:57.890Z,69.34
2022-11-25T10:47:15.888Z,69.09
2022-11-25T10:48:31.330Z,69.09
2022-11-25T10:49:48.342Z,68.93
2022-11-25T10:51:06.009Z,68.66
2022-11-25T10:52:13.152Z,68.29
2022-11-25T10:53:20.729Z,68.14
2022-11-25T10:54:27.585Z,67.90
2022-11-25T10:55:32.389Z,67.80
2022-11-25T10:56:48.496Z,67.65
2022-11-25T10:57:50.894Z,67.62
2022-11-25T10:58:54.807Z,67.98
2022-11-25T10:59:59.043Z,67.67
2022-11-25T11:01:15.642Z,67.87
2022-11-25T11:02:30.152Z,67.80
2022-11-25T11:03:32.465Z,67.90
2022-11-25T11:04:35.851Z,68.02
2022-11-25T11:05:46.666Z,68.09
2022-11-25T11:06:50.818Z,67.46
2022-11-25T11:08:28.954Z,66.99
2022-11-25T11:09:38.139Z,66.27
2022-11-25T11:10:40.692Z,66.45
2022-11-25T11:11:48.857Z,66.78
2022-11-25T11:13:00.344Z,66.99
2022-11-25T11:14:08.780Z,66.93
2022-11-25T11:15:20.825Z,67.48
2022-11-25T11:16:28.587Z,67.49
2022-11-25T11:17:37.125Z,67.15
2022-11-25T11:18:43.462Z,66.96
2022-11-25T11:20:01.329Z,66.70
2022-11-25T11:21:06.243Z,66.09
2022-11-25T11:22:17.335Z,66.18
2022-11-25T11:23:19.924Z,66.03
2022-11-25T11:24:42.596Z,66.46
2022-11-25T11:25:58.745Z,66.39
2022-11-25T11:27:04.782Z,67.04
2022-11-25T11:28:44.443Z,66.42
2022-11-25T11:29:46.728Z,65.94
2022-11-25T11:31:27.645Z,66.12
2022-11-25T11:32:30.427Z,66.86
2022-11-25T11:33:48.381Z,66.61
2022-11-25T11:35:13.573Z,66.21
2022-11-25T11:36:50.023Z,65.85
2022-11-25T11:37:56.952Z,65.22
2022-11-25T11:39:32.935Z,65.06
2022-11-25T11:40:50.427Z,64.63
2022-11-25T11:42:16.719Z,64.83
2022-11-25T11:43:25.059Z,65.30
2022-11-25T11:44:44.407Z,65.07
2022-11-25T11:46:11.668Z,64.72
2022-11-25T11:47:32.614Z,64.52
2022-11-25T11:48:38.787Z,64.40
2022-11-25T11:50:02.085Z,64.42
2022-11-25T11:51:25.381Z,65.05
2022-11-25T11:52:45.975Z,65.04
2022-11-25T11:54:00.790Z,65.10
2022-11-25T11:55:26.212Z,64.73
2022-11-25T11:56:40.572Z,64.76
2022-11-25T11:58:11.296Z,64.25
2022-11-25T11:59:32.062Z,64.19
2022-11-25T12:00:39.799Z,64.75
2022-11-25T12:01:59.808Z,64.52
2022-11-25T12:03:14.672Z,64.43
2022-11-25T12:04:27.574Z,63.90
2022-11-25T12:05:34.277Z,64.00
2022-11-25T12:06:38.380Z,63.67
2022-11-25T12:07:53.661Z,64.06
2022-11-25T12:09:05.848Z,64.23
2022-11-25T12:10:22.499Z,64.05
2022-11-25T12:11:32.504Z,64.07
2022-11-25T12:12:42.692Z,63.88
2022-11-25T12:14:07.988Z,63.89
2022-11-25T12:15:40.768Z,63.89
2022-11-25T12:16:52.960Z,64.46
2022-11-25T12:18:01.621Z,63.71
2022-11-25T12:19:27.015Z,63.59
2022-11-25T12:20:54.218Z,63.54
2022-11-25T12:21:56.334Z,63.76
2022-11-25T12:23:11.416Z,64.19
2022-11-25T12:24:17.292Z,63.98
2022-11-25T12:25:25.824Z,63.58
2022-11-25T12:26:37.233Z,63.97
2022-11-25T12:28:06.123Z,64.36
2022-11-25T12:29:34.995Z,64.72
2022-11-25T12:31:20.297Z,64.70
2022-11-25T12:32:28.416Z,64.68
2022-11-25T12:33:39.136Z,63.97
2022-11-25T12:34:50.123Z,63.74
2022-11-25T12:36:06.958Z,64.04
2022-11-25T12:37:15.966Z,63.44
2022-11-25T12:38:33.140Z,63.90
2022-11-25T12:39:48.561Z,64.33
2022-11-25T12:41:03.463Z,64.34
2022-11-25T12:42:14.906Z,64.95
2022-11-25T12:43:35.865Z,64.82
2022-11-25T12:45:02.556Z,64.81
2022-11-25T12:46:25.770Z,65.03
2022-11-25T12:47:28.144Z,64.64
2022-11-25T12:48:31.090Z,64.46
2022-11-25T12:49:42.629Z,64.58
2022-11-25T12:51:07.105Z,64.77
2022-11-25T12:52:24.172Z,64.53
2022-11-25T12:53:54.840Z,65.17
2022-11-25T12:55:14.111Z,64.95
2022-11-25T12:56:22.445Z,65.36
2022-11-25T12:57:49.185Z,65.52
2022-11-25T12:59:14.548Z,65.42
2022-11-25T13:00:42.376Z,65.51
2022-11-25T13:02:04.376Z,65.28
2022-11-25T13:03:28.462Z,65.40
2022-11-25T13:04:48.153Z,65.27
2022-11-25T13:06:18.558Z,64.47
2022-11-25T13:07:27.385Z,64.34
2022-11-25T13:09:07.405Z,64.08
2022-11-25T13:10:36.801Z,64.42
2022-11-25T13:11:44.968Z,64.71
2022-11-25T13:12:59.283Z,65.13
2022-11-25T13:14:30.992Z,65.51
2022-11-25T13:15:45.706Z,65.62
2022-11-25T13:16:50.392Z,65.84
2022-11-25T13:17:59.726Z,65.83
2022-11-25T13:19:08.595Z,66.21
2022-11-25T13:20:29.295Z,66.10
2022-11-25T13:21:31.967Z,66.44
2022-11-25T13:22:34.369Z,66.57
2022-11-25T13:23:58.904Z,66.44
2022-11-25T13:25:01.104Z,66.73
2022-11-25T13:26:42.342Z,66.72
2022-11-25T13:27:44.520Z,66.80
2022-11-25T13:28:46.971Z,66.82
2022-11-25T13:29:54.115Z,66.84
2022-11-25T13:31:38.219Z,66.98
2022-11-25T13:32:42.169Z,67.45
2022-11-25T13:33:44.725Z,66.94
2022-11-25T13:34:47.006Z,66.83
2022-11-25T13:35:55.849Z,67.08
2022-11-25T13:37:00.745Z,67.24
2022-11-25T13:38:07.741Z,67.22
2022-11-25T13:39:34.321Z,67.20
2022-11-25T13:40:38.727Z,67.19
2022-11-25T13:41:46.215Z,67.36
2022-11-25T13:42:48.914Z,67.46
2022-11-25T13:44:02.035Z,67.51
2022-11-25T13:45:04.937Z,67.31
2022-11-25T13:46:07.318Z,67.37
2022-11-25T13:47:35.197Z,67.42
2022-11-25T13:48:37.951Z,67.52
2022-11-25T13:49:55.638Z,67.80
2022-11-25T13:51:17.758Z,67.69
2022-11-25T13:52:40.146Z,67.57
2022-11-25T13:53:50.153Z,67.77
2022-11-25T13:54:55.569Z,67.79
2022-11-25T13:56:25.598Z,68.08
2022-11-25T13:57:30.685Z,68.23
2022-11-25T13:58:35.915Z,68.06
2022-11-25T13:59:50.043Z,68.42
2022-11-25T14:00:58.259Z,68.22
2022-11-25T14:02:29.710Z,68.30
2022-11-25T14:03:32.024Z,68.21
2022-11-25T14:04:53.499Z,68.37
2022-11-25T14:06:12.565Z,68.48
2022-11-25T14:07:41.506Z,68.46
2022-11-25T14:09:18.981Z,68.90
2022-11-25T14:10:45.765Z,68.95
2022-11-25T14:12:02.362Z,69.02
2022-11-25T14:13:31.756Z,69.31
2022-11-25T14:15:10.752Z,69.57
2022-11-25T14:16:22.109Z,69.78
2022-11-25T14:17:40.591Z,70.20
2022-11-25T14:19:49.591Z,70.21
2022-11-25T14:21:02.656Z,70.60
2022-11-25T14:22:19.677Z,70.59
2022-11-25T14:23:37.147Z,70.84
2022-11-25T14:24:45.691Z,70.60
2022-11-25T14:25:54.103Z,70.69
2022-11-25T14:26:58.975Z,70.69
2022-11-25T14:28:10.452Z,70.84
2022-11-25T14:29:22.084Z,70.86
2022-11-25T14:30:25.834Z,71.26
2022-11-25T14:31:51.905Z,71.27
2022-11-25T14:33:01.114Z,71.19
2022-11-25T14:34:20.884Z,71.80